createdAt,value
2022-11-23T00:00:44.768Z,18.23
2022-11-23T00:06:05.226Z,18.10
2022-11-23T00:11:27.465Z,20.02
2022-11-23T00:16:48.213Z,19.33
2022-11-23T00:22:08.838Z,18.95
2022-11-23T00:27:29.533Z,18.63
2022-11-23T00:32:50.219Z,18.33
2022-11-23T00:38:11.793Z,19.00
2022-11-23T00:43:32.986Z,17.67
2022-11-23T00:48:56.227Z,18.30
2022-11-23T00:54:17.177Z,17.67
2022-11-23T00:59:37.656Z,17.42
2022-11-23T01:04:58.462Z,18.55
2022-11-23T01:10:18.916Z,18.25
2022-11-23T01:15:39.718Z,19.00
2022-11-23T01:21:01.615Z,18.90
2022-11-23T01:26:22.898Z,17.98
2022-11-23T01:31:46.757Z,19.05
2022-11-23T01:37:10.608Z,18.08
2022-11-23T01:42:53.794Z,17.23
2022-11-23T01:48:22.899Z,17.27
2022-11-23T01:53:45.971Z,18.58
2022-11-23T01:59:12.146Z,17.88
2022-11-23T02:04:36.895Z,18.25
2022-11-23T02:09:59.110Z,20.10
2022-11-23T02:15:19.619Z,19.85
2022-11-23T02:20:44.703Z,14.07
2022-11-23T02:26:11.646Z,19.00
2022-11-23T02:31:32.553Z,17.30
2022-11-23T02:36:56.164Z,17.92
2022-11-23T02:42:18.027Z,16.40
2022-11-23T02:47:38.317Z,16.80
2022-11-23T02:52:59.141Z,18.30
2022-11-23T02:58:19.734Z,17.50
2022-11-23T03:03:40.696Z,17.70
2022-11-23T03:09:01.334Z,17.83
2022-11-23T03:14:22.792Z,16.33
2022-11-23T03:19:51.116Z,17.73
2022-11-23T03:25:11.738Z,15.55
2022-11-23T03:30:34.328Z,17.90
2022-11-23T03:35:57.818Z,15.63
2022-11-23T03:41:26.039Z,17.63
2022-11-23T03:46:47.546Z,15.48
2022-11-23T03:52:08.095Z,16.77
2022-11-23T03:57:28.620Z,16.77
2022-11-23T04:02:49.411Z,16.58
2022-11-23T04:08:35.682Z,15.82
2022-11-23T04:14:00.965Z,15.02
2022-11-23T04:19:21.461Z,16.20
2022-11-23T04:24:42.288Z,15.27
2022-11-23T04:30:04.888Z,13.07
2022-11-23T04:35:26.663Z,15.38
2022-11-23T04:40:48.971Z,14.25
2022-11-23T04:46:12.013Z,12.82
2022-11-23T04:51:32.849Z,15.15
2022-11-23T04:56:54.282Z,15.23
2022-11-23T05:02:15.437Z,17.02
2022-11-23T05:07:41.709Z,14.60
2022-11-23T05:13:03.831Z,15.00
2022-11-23T05:18:24.472Z,16.67
2022-11-23T05:23:45.143Z,16.80
2022-11-23T05:29:07.374Z,14.90
2022-11-23T05:34:27.986Z,14.98
2022-11-23T05:39:48.441Z,15.68
2022-11-23T05:45:11.700Z,14.80
2022-11-23T05:50:36.963Z,14.75
2022-11-23T05:56:16.378Z,14.30
2022-11-23T06:01:52.344Z,14.18
2022-11-23T06:07:21.395Z,14.15
2022-11-23T06:12:53.175Z,14.60
2022-11-23T06:18:16.175Z,13.48
2022-11-23T06:23:42.483Z,14.15
2022-11-23T06:29:03.111Z,13.20
2022-11-23T06:34:23.767Z,11.23
2022-11-23T06:39:44.766Z,15.10
2022-11-23T06:45:06.109Z,12.77
2022-11-23T06:50:27.065Z,12.80
2022-11-23T06:55:48.582Z,12.68
2022-11-23T07:01:11.864Z,13.43
2022-11-23T07:06:41.670Z,11.85
2022-11-23T07:12:10.331Z,12.32
2022-11-23T07:17:31.030Z,12.57
2022-11-23T07:23:07.037Z,12.73
2022-11-23T07:28:27.802Z,13.95
2022-11-23T07:33:48.715Z,12.30
2022-11-23T07:39:11.229Z,13.25
2022-11-23T07:44:31.842Z,12.15
2022-11-23T07:49:52.127Z,12.80
2022-11-23T07:55:12.811Z,12.75
2022-11-23T08:00:33.503Z,13.77
2022-11-23T08:05:54.054Z,12.63
2022-11-23T08:11:17.007Z,11.77
2022-11-23T08:16:37.332Z,13.00
2022-11-23T08:21:57.919Z,13.32
2022-11-23T08:27:18.332Z,13.07
2022-11-23T08:32:38.659Z,12.57
2022-11-23T08:37:59.058Z,12.48
2022-11-23T08:43:19.376Z,11.65
2022-11-23T08:48:39.810Z,14.57
2022-11-23T08:54:00.230Z,13.05
2022-11-23T08:59:21.621Z,12.48
2022-11-23T09:04:42.464Z,13.65
2022-11-23T09:10:03.113Z,12.75
2022-11-23T09:15:23.674Z,13.23
2022-11-23T09:20:44.417Z,13.85
2022-11-23T09:26:05.158Z,13.02
2022-11-23T09:31:28.860Z,13.15
2022-11-23T09:36:49.505Z,11.90
2022-11-23T09:42:31.496Z,11.50
2022-11-23T09:48:10.643Z,12.15
2022-11-23T09:53:45.599Z,13.25
2022-11-23T10:04:35.458Z,12.57
2022-11-23T10:10:09.153Z,13.27
2022-11-23T10:16:00.276Z,13.60
2022-11-23T10:21:39.430Z,12.30
2022-11-23T10:27:01.456Z,11.15
2022-11-23T10:32:38.744Z,12.15
2022-11-23T10:38:18.442Z,12.35
2022-11-23T10:44:04.206Z,11.68
2022-11-23T10:49:29.182Z,12.85
2022-11-23T10:54:54.317Z,11.25
2022-11-23T11:00:18.216Z,9.95
2022-11-23T11:11:38.542Z,11.30
2022-11-23T11:16:58.945Z,9.27
2022-11-23T11:22:32.146Z,10.13
2022-11-23T11:27:52.728Z,8.60
2022-11-23T11:33:41.013Z,9.20
2022-11-23T11:39:18.420Z,8.95
2022-11-23T11:44:42.319Z,9.43
2022-11-23T11:50:15.987Z,9.07
2022-11-23T11:55:48.489Z,8.57
2022-11-23T12:01:20.383Z,9.00
2022-11-23T12:06:52.886Z,8.07
2022-11-23T12:12:19.176Z,8.10
2022-11-23T12:17:45.538Z,10.13
2022-11-23T12:23:24.067Z,8.68
2022-11-23T12:29:04.678Z,8.13
2022-11-23T12:34:58.597Z,7.95
2022-11-23T12:40:36.483Z,7.80
2022-11-23T12:46:19.147Z,8.45
2022-11-23T12:52:10.004Z,7.65
2022-11-23T12:57:42.164Z,7.95
2022-11-23T13:03:18.357Z,7.35
2022-11-23T13:09:17.370Z,6.25
2022-11-23T13:14:46.469Z,6.10
2022-11-23T13:20:09.849Z,5.90
2022-11-23T13:25:30.853Z,7.47
2022-11-23T13:31:28.639Z,7.40
2022-11-23T13:37:15.806Z,6.90
2022-11-23T13:42:36.644Z,6.85
2022-11-23T13:48:09.240Z,6.53
2022-11-23T13:53:39.611Z,6.20
2022-11-23T13:59:25.222Z,7.20
2022-11-23T14:04:49.487Z,6.45
2022-11-23T14:10:24.055Z,6.30
2022-11-23T14:15:55.117Z,6.72
2022-11-23T14:21:38.366Z,6.93
2022-11-23T14:27:38.990Z,5.55
2022-11-23T14:33:04.294Z,5.57
2022-11-23T14:38:55.934Z,5.88
2022-11-23T14:44:26.195Z,6.47
2022-11-23T14:49:51.295Z,6.70
2022-11-23T14:55:20.657Z,6.47
2022-11-23T15:00:45.894Z,6.35
2022-11-23T15:06:23.959Z,6.53
2022-11-23T15:11:44.436Z,6.35
2022-11-23T15:17:17.920Z,6.97
2022-11-23T15:22:43.261Z,6.30
2022-11-23T15:28:03.608Z,6.47
2022-11-23T15:33:24.334Z,7.00
2022-11-23T15:38:45.340Z,6.00
2022-11-23T15:44:25.252Z,6.53
2022-11-23T15:49:46.863Z,6.15
2022-11-23T15:55:13.510Z,6.57
2022-11-23T16:00:34.348Z,4.90
2022-11-23T16:06:12.900Z,6.03
2022-11-23T16:11:36.413Z,6.65
2022-11-23T16:17:20.232Z,6.22
2022-11-23T16:22:49.583Z,5.90
2022-11-23T16:28:24.825Z,6.82
2022-11-23T16:33:45.695Z,5.90
2022-11-23T16:39:06.384Z,5.30
2022-11-23T16:44:29.522Z,6.20
2022-11-23T16:49:51.094Z,5.85
2022-11-23T16:55:11.818Z,5.32
2022-11-23T17:00:33.857Z,4.93
2022-11-23T17:05:55.143Z,5.40
2022-11-23T17:11:20.234Z,5.22
2022-11-23T17:16:42.103Z,5.90
2022-11-23T17:22:02.967Z,6.68
2022-11-23T17:27:24.729Z,6.35
2022-11-23T17:32:47.811Z,5.97
2022-11-23T17:38:17.745Z,5.93
2022-11-23T17:43:38.188Z,5.38
2022-11-23T17:48:59.677Z,5.78
2022-11-23T17:54:22.465Z,6.43
2022-11-23T17:59:44.002Z,5.57
2022-11-23T18:05:05.378Z,5.53
2022-11-23T18:10:26.070Z,5.18
2022-11-23T18:15:46.519Z,5.15
2022-11-23T18:21:09.643Z,6.00
2022-11-23T18:26:30.496Z,6.18
2022-11-23T18:31:51.358Z,6.38
2022-11-23T18:37:12.021Z,5.00
2022-11-23T18:42:32.969Z,6.88
2022-11-23T18:47:54.265Z,6.60
2022-11-23T18:53:15.341Z,5.80
2022-11-23T18:58:39.586Z,6.47
2022-11-23T19:04:00.434Z,5.97
2022-11-23T19:09:21.018Z,5.65
2022-11-23T19:14:42.196Z,5.40
2022-11-23T19:20:05.444Z,6.53
2022-11-23T19:25:26.165Z,6.72
2022-11-23T19:30:46.849Z,5.47
2022-11-23T19:36:09.719Z,5.60
2022-11-23T19:41:31.336Z,6.90
2022-11-23T19:46:51.876Z,6.05
2022-11-23T19:52:12.791Z,5.63
2022-11-23T19:57:33.241Z,5.80
2022-11-23T20:02:53.922Z,7.25
2022-11-23T20:08:14.439Z,5.93
2022-11-23T20:13:38.370Z,6.00
2022-11-23T20:24:21.624Z,6.07
2022-11-23T20:29:42.505Z,5.47
2022-11-23T20:35:03.236Z,6.15
2022-11-23T20:40:23.945Z,6.75
2022-11-23T20:45:44.356Z,6.10
2022-11-23T20:51:10.242Z,5.95
2022-11-23T20:56:32.251Z,4.97
2022-11-23T21:01:53.069Z,6.55
2022-11-23T21:07:14.203Z,6.60
2022-11-23T21:12:53.365Z,5.38
2022-11-23T21:18:14.510Z,6.00
2022-11-23T21:23:36.117Z,6.47
2022-11-23T21:28:57.215Z,7.10
2022-11-23T21:34:28.601Z,6.15
2022-11-23T21:39:52.920Z,5.60
2022-11-23T21:50:34.635Z,5.88
2022-11-23T21:56:00.371Z,5.57
2022-11-23T22:01:26.957Z,5.68
2022-11-23T22:06:47.683Z,4.85
2022-11-23T22:12:08.282Z,6.78
2022-11-23T22:17:29.004Z,5.80
2022-11-23T22:22:49.574Z,6.03
2022-11-23T22:28:10.009Z,6.00
2022-11-23T22:33:31.395Z,6.22
2022-11-23T22:39:03.816Z,5.63
2022-11-23T22:44:24.361Z,7.22
2022-11-23T22:49:44.732Z,5.80
2022-11-23T22:55:05.949Z,6.75
2022-11-23T23:00:26.535Z,6.55
2022-11-23T23:05:57.803Z,6.68
2022-11-23T23:11:18.600Z,7.88
2022-11-23T23:16:39.179Z,7.75
2022-11-23T23:21:59.689Z,6.43
2022-11-23T23:27:20.497Z,5.65
2022-11-23T23:32:41.440Z,5.03
2022-11-23T23:38:02.100Z,5.40
2022-11-23T23:43:22.685Z,3.47
2022-11-23T23:48:43.909Z,3.70
2022-11-23T23:54:04.275Z,5.03
2022-11-23T23:59:25.131Z,4.50
